sensor_id;sensor_type;location;lat;lon;timestamp;P1;durP1;ratioP1;P2;durP2;ratioP2
30080;SDS011;16902;50.816;12.828;2023-02-08T00:02:39;67.40;;;36.70;;
30080;SDS011;16902;50.816;12.828;2023-02-08T00:07:41;68.30;;;36.80;;
30080;SDS011;16902;50.816;12.828;2023-02-08T00:12:43;81.43;;;36.33;;
30080;SDS011;16902;50.816;12.828;2023-02-08T00:17:44;69.20;;;36.03;;
30080;SDS011;16902;50.816;12.828;2023-02-08T00:22:46;65.73;;;35.37;;
30080;SDS011;16902;50.816;12.828;2023-02-08T00:27:48;72.40;;;36.33;;
30080;SDS011;16902;50.816;12.828;2023-02-08T00:32:50;68.67;;;37.60;;
30080;SDS011;16902;50.816;12.828;2023-02-08T00:37:52;73.43;;;36.33;;
30080;SDS011;16902;50.816;12.828;2023-02-08T00:42:54;69.43;;;35.20;;
30080;SDS011;16902;50.816;12.828;2023-02-08T00:47:56;62.63;;;33.43;;
30080;SDS011;16902;50.816;12.828;2023-02-08T00:52:58;60.57;;;33.73;;
30080;SDS011;16902;50.816;12.828;2023-02-08T00:58:00;62.27;;;33.40;;
30080;SDS011;16902;50.816;12.828;2023-02-08T01:03:03;67.70;;;34.50;;
30080;SDS011;16902;50.816;12.828;2023-02-08T01:08:05;68.07;;;35.23;;
30080;SDS011;16902;50.816;12.828;2023-02-08T01:13:07;74.20;;;35.47;;
30080;SDS011;16902;50.816;12.828;2023-02-08T01:18:10;74.30;;;35.03;;
30080;SDS011;16902;50.816;12.828;2023-02-08T01:23:12;65.43;;;34.13;;
30080;SDS011;16902;50.816;12.828;2023-02-08T01:28:13;64.43;;;33.17;;
30080;SDS011;16902;50.816;12.828;2023-02-08T01:33:15;63.10;;;31.80;;
30080;SDS011;16902;50.816;12.828;2023-02-08T01:38:18;63.43;;;32.20;;
30080;SDS011;16902;50.816;12.828;2023-02-08T01:43:21;61.43;;;31.97;;
30080;SDS011;16902;50.816;12.828;2023-02-08T01:48:27;64.50;;;31.87;;
30080;SDS011;16902;50.816;12.828;2023-02-08T01:53:35;63.70;;;32.30;;
30080;SDS011;16902;50.816;12.828;2023-02-08T01:58:38;69.33;;;34.13;;
30080;SDS011;16902;50.816;12.828;2023-02-08T02:03:43;65.53;;;32.90;;
30080;SDS011;16902;50.816;12.828;2023-02-08T02:09:09;68.47;;;33.97;;
30080;SDS011;16902;50.816;12.828;2023-02-08T02:14:12;62.33;;;32.37;;
30080;SDS011;16902;50.816;12.828;2023-02-08T02:19:18;68.10;;;34.33;;
30080;SDS011;16902;50.816;12.828;2023-02-08T02:46:26;59.30;;;32.70;;
30080;SDS011;16902;50.816;12.828;2023-02-08T02:57:14;57.73;;;32.00;;
30080;SDS011;16902;50.816;12.828;2023-02-08T03:02:21;52.67;;;29.97;;
30080;SDS011;16902;50.816;12.828;2023-02-08T03:23:27;53.67;;;29.37;;
30080;SDS011;16902;50.816;12.828;2023-02-08T03:39:07;57.63;;;30.33;;
30080;SDS011;16902;50.816;12.828;2023-02-08T03:44:15;64.10;;;31.13;;
30080;SDS011;16902;50.816;12.828;2023-02-08T03:49:23;54.97;;;30.07;;
30080;SDS011;16902;50.816;12.828;2023-02-08T03:54:32;62.40;;;33.10;;
30080;SDS011;16902;50.816;12.828;2023-02-08T03:59:39;57.03;;;29.83;;
30080;SDS011;16902;50.816;12.828;2023-02-08T04:04:44;60.20;;;29.87;;
30080;SDS011;16902;50.816;12.828;2023-02-08T04:09:48;43.77;;;29.13;;
30080;SDS011;16902;50.816;12.828;2023-02-08T04:14:50;53.80;;;29.33;;
30080;SDS011;16902;50.816;12.828;2023-02-08T04:19:52;51.20;;;27.57;;
30080;SDS011;16902;50.816;12.828;2023-02-08T04:24:54;53.33;;;29.27;;
30080;SDS011;16902;50.816;12.828;2023-02-08T04:29:55;57.83;;;30.00;;
30080;SDS011;16902;50.816;12.828;2023-02-08T04:34:57;49.70;;;29.70;;
30080;SDS011;16902;50.816;12.828;2023-02-08T04:39:59;53.40;;;28.53;;
30080;SDS011;16902;50.816;12.828;2023-02-08T04:45:01;57.30;;;28.07;;
30080;SDS011;16902;50.816;12.828;2023-02-08T04:50:03;53.67;;;27.30;;
30080;SDS011;16902;50.816;12.828;2023-02-08T04:55:06;53.70;;;27.93;;
30080;SDS011;16902;50.816;12.828;2023-02-08T05:00:08;52.57;;;28.47;;
30080;SDS011;16902;50.816;12.828;2023-02-08T05:05:10;53.40;;;27.40;;
30080;SDS011;16902;50.816;12.828;2023-02-08T05:10:12;59.57;;;28.87;;
30080;SDS011;16902;50.816;12.828;2023-02-08T05:15:14;52.27;;;28.43;;
30080;SDS011;16902;50.816;12.828;2023-02-08T05:20:16;56.17;;;29.70;;
30080;SDS011;16902;50.816;12.828;2023-02-08T05:25:18;61.97;;;30.43;;
30080;SDS011;16902;50.816;12.828;2023-02-08T05:30:20;46.47;;;28.00;;
30080;SDS011;16902;50.816;12.828;2023-02-08T05:35:22;51.93;;;28.60;;
30080;SDS011;16902;50.816;12.828;2023-02-08T05:40:24;56.87;;;30.23;;
30080;SDS011;16902;50.816;12.828;2023-02-08T05:45:25;57.27;;;31.67;;
30080;SDS011;16902;50.816;12.828;2023-02-08T05:50:27;59.57;;;31.67;;
30080;SDS011;16902;50.816;12.828;2023-02-08T05:55:29;73.40;;;31.20;;
30080;SDS011;16902;50.816;12.828;2023-02-08T06:00:31;59.77;;;31.13;;
30080;SDS011;16902;50.816;12.828;2023-02-08T06:05:33;55.80;;;28.27;;
30080;SDS011;16902;50.816;12.828;2023-02-08T06:10:35;60.90;;;31.37;;
30080;SDS011;16902;50.816;12.828;2023-02-08T06:15:37;54.77;;;29.03;;
30080;SDS011;16902;50.816;12.828;2023-02-08T06:20:39;59.20;;;29.30;;
30080;SDS011;16902;50.816;12.828;2023-02-08T06:25:41;58.23;;;29.70;;
30080;SDS011;16902;50.816;12.828;2023-02-08T06:30:43;57.37;;;30.10;;
30080;SDS011;16902;50.816;12.828;2023-02-08T06:35:45;55.33;;;29.17;;
30080;SDS011;16902;50.816;12.828;2023-02-08T06:40:48;61.10;;;31.87;;
30080;SDS011;16902;50.816;12.828;2023-02-08T06:45:50;57.03;;;30.90;;
30080;SDS011;16902;50.816;12.828;2023-02-08T06:50:52;59.60;;;31.83;;
30080;SDS011;16902;50.816;12.828;2023-02-08T06:55:55;62.57;;;32.90;;
30080;SDS011;16902;50.816;12.828;2023-02-08T07:00:57;64.20;;;31.67;;
30080;SDS011;16902;50.816;12.828;2023-02-08T07:05:59;66.00;;;32.53;;
30080;SDS011;16902;50.816;12.828;2023-02-08T07:11:13;59.10;;;31.60;;
30080;SDS011;16902;50.816;12.828;2023-02-08T07:16:17;65.33;;;32.23;;
30080;SDS011;16902;50.816;12.828;2023-02-08T07:21:19;66.83;;;32.63;;
30080;SDS011;16902;50.816;12.828;2023-02-08T07:26:22;70.60;;;35.43;;
30080;SDS011;16902;50.816;12.828;2023-02-08T07:31:23;55.90;;;32.37;;
30080;SDS011;16902;50.816;12.828;2023-02-08T07:36:25;66.60;;;33.17;;
30080;SDS011;16902;50.816;12.828;2023-02-08T07:41:27;71.23;;;34.73;;
30080;SDS011;16902;50.816;12.828;2023-02-08T07:46:29;68.07;;;33.67;;
30080;SDS011;16902;50.816;12.828;2023-02-08T07:51:31;71.23;;;36.40;;
30080;SDS011;16902;50.816;12.828;2023-02-08T07:56:33;70.20;;;36.50;;
30080;SDS011;16902;50.816;12.828;2023-02-08T08:01:35;66.17;;;35.80;;
30080;SDS011;16902;50.816;12.828;2023-02-08T08:06:37;72.57;;;38.20;;
30080;SDS011;16902;50.816;12.828;2023-02-08T08:11:39;83.47;;;41.80;;
30080;SDS011;16902;50.816;12.828;2023-02-08T08:16:40;88.93;;;44.50;;
30080;SDS011;16902;50.816;12.828;2023-02-08T08:21:43;94.50;;;47.13;;
30080;SDS011;16902;50.816;12.828;2023-02-08T08:26:45;92.90;;;45.03;;
30080;SDS011;16902;50.816;12.828;2023-02-08T08:31:47;87.87;;;44.57;;
30080;SDS011;16902;50.816;12.828;2023-02-08T08:36:49;80.33;;;43.00;;
30080;SDS011;16902;50.816;12.828;2023-02-08T08:41:51;78.57;;;42.53;;
30080;SDS011;16902;50.816;12.828;2023-02-08T08:46:54;76.83;;;40.73;;
30080;SDS011;16902;50.816;12.828;2023-02-08T08:52:16;67.80;;;36.90;;
30080;SDS011;16902;50.816;12.828;2023-02-08T08:57:18;68.53;;;37.00;;
30080;SDS011;16902;50.816;12.828;2023-02-08T09:02:20;73.63;;;38.23;;
30080;SDS011;16902;50.816;12.828;2023-02-08T09:07:22;65.70;;;38.20;;
30080;SDS011;16902;50.816;12.828;2023-02-08T09:12:24;65.80;;;34.90;;
30080;SDS011;16902;50.816;12.828;2023-02-08T09:17:26;63.20;;;35.83;;
30080;SDS011;16902;50.816;12.828;2023-02-08T09:22:28;64.77;;;34.77;;
30080;SDS011;16902;50.816;12.828;2023-02-08T09:27:30;54.43;;;32.83;;
30080;SDS011;16902;50.816;12.828;2023-02-08T09:32:32;59.83;;;33.67;;
30080;SDS011;16902;50.816;12.828;2023-02-08T09:37:35;57.10;;;31.63;;
30080;SDS011;16902;50.816;12.828;2023-02-08T09:42:43;46.87;;;27.70;;
30080;SDS011;16902;50.816;12.828;2023-02-08T09:58:18;41.67;;;25.13;;
30080;SDS011;16902;50.816;12.828;2023-02-08T10:03:34;38.47;;;23.50;;
30080;SDS011;16902;50.816;12.828;2023-02-08T10:08:38;37.53;;;23.97;;
30080;SDS011;16902;50.816;12.828;2023-02-08T10:19:13;37.90;;;25.03;;
30080;SDS011;16902;50.816;12.828;2023-02-08T10:30:13;40.65;;;26.10;;
30080;SDS011;16902;50.816;12.828;2023-02-08T10:35:34;38.03;;;26.65;;
30080;SDS011;16902;50.816;12.828;2023-02-08T10:40:43;34.45;;;24.77;;
30080;SDS011;16902;50.816;12.828;2023-02-08T10:51:17;40.97;;;27.88;;
30080;SDS011;16902;50.816;12.828;2023-02-08T10:56:29;42.40;;;28.17;;
30080;SDS011;16902;50.816;12.828;2023-02-08T11:01:36;56.47;;;37.00;;
30080;SDS011;16902;50.816;12.828;2023-02-08T11:06:39;57.05;;;34.85;;
30080;SDS011;16902;50.816;12.828;2023-02-08T11:11:43;48.10;;;31.27;;
30080;SDS011;16902;50.816;12.828;2023-02-08T11:16:54;41.95;;;30.60;;
30080;SDS011;16902;50.816;12.828;2023-02-08T11:21:57;42.83;;;31.27;;
30080;SDS011;16902;50.816;12.828;2023-02-08T11:27:01;42.33;;;32.25;;
30080;SDS011;16902;50.816;12.828;2023-02-08T11:37:20;43.95;;;33.75;;
30080;SDS011;16902;50.816;12.828;2023-02-08T11:42:31;46.70;;;33.95;;
30080;SDS011;16902;50.816;12.828;2023-02-08T11:47:43;43.05;;;33.38;;
30080;SDS011;16902;50.816;12.828;2023-02-08T11:52:50;44.33;;;32.00;;
30080;SDS011;16902;50.816;12.828;2023-02-08T11:58:03;43.58;;;33.45;;
30080;SDS011;16902;50.816;12.828;2023-02-08T12:03:16;39.65;;;31.42;;
30080;SDS011;16902;50.816;12.828;2023-02-08T12:14:37;40.35;;;31.02;;
30080;SDS011;16902;50.816;12.828;2023-02-08T12:40:51;35.72;;;29.60;;
30080;SDS011;16902;50.816;12.828;2023-02-08T12:56:29;29.10;;;24.55;;
30080;SDS011;16902;50.816;12.828;2023-02-08T13:01:40;28.38;;;24.95;;
30080;SDS011;16902;50.816;12.828;2023-02-08T13:06:46;29.70;;;26.63;;
30080;SDS011;16902;50.816;12.828;2023-02-08T13:11:56;32.13;;;26.10;;
30080;SDS011;16902;50.816;12.828;2023-02-08T13:17:09;27.95;;;24.98;;
30080;SDS011;16902;50.816;12.828;2023-02-08T13:22:12;30.55;;;25.05;;
30080;SDS011;16902;50.816;12.828;2023-02-08T13:27:17;31.15;;;26.02;;
30080;SDS011;16902;50.816;12.828;2023-02-08T13:37:31;30.70;;;26.40;;
30080;SDS011;16902;50.816;12.828;2023-02-08T13:42:39;33.10;;;26.00;;
30080;SDS011;16902;50.816;12.828;2023-02-08T13:47:47;29.50;;;25.50;;
30080;SDS011;16902;50.816;12.828;2023-02-08T13:52:56;31.65;;;25.38;;
30080;SDS011;16902;50.816;12.828;2023-02-08T14:13:33;41.60;;;27.63;;
30080;SDS011;16902;50.816;12.828;2023-02-08T14:18:40;39.03;;;28.63;;
30080;SDS011;16902;50.816;12.828;2023-02-08T14:23:59;39.00;;;26.27;;
30080;SDS011;16902;50.816;12.828;2023-02-08T14:29:04;45.38;;;29.10;;
30080;SDS011;16902;50.816;12.828;2023-02-08T14:39:36;39.57;;;26.77;;
30080;SDS011;16902;50.816;12.828;2023-02-08T14:49:42;37.80;;;25.37;;
30080;SDS011;16902;50.816;12.828;2023-02-08T14:54:47;38.63;;;26.60;;
30080;SDS011;16902;50.816;12.828;2023-02-08T14:59:54;42.37;;;27.97;;
30080;SDS011;16902;50.816;12.828;2023-02-08T15:05:00;44.00;;;27.00;;
30080;SDS011;16902;50.816;12.828;2023-02-08T15:10:04;47.00;;;28.10;;
30080;SDS011;16902;50.816;12.828;2023-02-08T15:15:45;40.87;;;26.20;;
30080;SDS011;16902;50.816;12.828;2023-02-08T15:20:40;40.23;;;27.37;;
30080;SDS011;16902;50.816;12.828;2023-02-08T15:25:52;40.43;;;26.63;;
30080;SDS011;16902;50.816;12.828;2023-02-08T15:31:01;44.63;;;28.00;;
30080;SDS011;16902;50.816;12.828;2023-02-08T15:36:17;47.90;;;27.23;;
30080;SDS011;16902;50.816;12.828;2023-02-08T15:41:32;48.70;;;29.30;;
30080;SDS011;16902;50.816;12.828;2023-02-08T15:46:34;48.60;;;27.90;;
30080;SDS011;16902;50.816;12.828;2023-02-08T15:51:38;45.00;;;28.33;;
30080;SDS011;16902;50.816;12.828;2023-02-08T15:56:40;45.27;;;27.27;;
30080;SDS011;16902;50.816;12.828;2023-02-08T16:01:49;46.23;;;28.13;;
30080;SDS011;16902;50.816;12.828;2023-02-08T16:06:53;45.90;;;26.73;;
30080;SDS011;16902;50.816;12.828;2023-02-08T16:11:58;44.37;;;27.20;;
30080;SDS011;16902;50.816;12.828;2023-02-08T16:17:01;48.93;;;26.73;;
30080;SDS011;16902;50.816;12.828;2023-02-08T16:22:14;48.10;;;27.83;;
30080;SDS011;16902;50.816;12.828;2023-02-08T16:27:27;48.57;;;28.40;;
30080;SDS011;16902;50.816;12.828;2023-02-08T16:32:31;56.70;;;31.63;;
30080;SDS011;16902;50.816;12.828;2023-02-08T16:37:36;52.70;;;28.67;;
30080;SDS011;16902;50.816;12.828;2023-02-08T16:42:38;53.70;;;29.43;;
30080;SDS011;16902;50.816;12.828;2023-02-08T16:52:49;56.40;;;31.20;;
30080;SDS011;16902;50.816;12.828;2023-02-08T16:57:59;59.80;;;31.50;;
30080;SDS011;16902;50.816;12.828;2023-02-08T17:03:01;65.87;;;33.97;;
30080;SDS011;16902;50.816;12.828;2023-02-08T17:08:03;67.27;;;34.23;;
30080;SDS011;16902;50.816;12.828;2023-02-08T17:13:08;64.57;;;34.77;;
30080;SDS011;16902;50.816;12.828;2023-02-08T17:18:21;60.73;;;33.17;;
30080;SDS011;16902;50.816;12.828;2023-02-08T17:23:23;66.53;;;34.87;;
30080;SDS011;16902;50.816;12.828;2023-02-08T17:28:25;65.87;;;34.83;;
30080;SDS011;16902;50.816;12.828;2023-02-08T17:33:28;68.60;;;34.87;;
30080;SDS011;16902;50.816;12.828;2023-02-08T17:38:30;67.03;;;33.77;;
30080;SDS011;16902;50.816;12.828;2023-02-08T17:43:32;75.33;;;35.63;;
30080;SDS011;16902;50.816;12.828;2023-02-08T17:48:34;71.50;;;36.47;;
30080;SDS011;16902;50.816;12.828;2023-02-08T17:53:36;68.60;;;34.77;;
30080;SDS011;16902;50.816;12.828;2023-02-08T17:58:41;68.97;;;35.57;;
30080;SDS011;16902;50.816;12.828;2023-02-08T18:03:43;67.50;;;36.23;;
30080;SDS011;16902;50.816;12.828;2023-02-08T18:08:46;70.30;;;35.40;;
30080;SDS011;16902;50.816;12.828;2023-02-08T18:13:50;68.80;;;37.47;;
30080;SDS011;16902;50.816;12.828;2023-02-08T18:18:53;81.53;;;39.77;;
30080;SDS011;16902;50.816;12.828;2023-02-08T18:24:03;74.73;;;39.33;;
30080;SDS011;16902;50.816;12.828;2023-02-08T18:29:06;74.73;;;37.37;;
30080;SDS011;16902;50.816;12.828;2023-02-08T18:34:10;83.30;;;40.70;;
30080;SDS011;16902;50.816;12.828;2023-02-08T18:39:13;77.43;;;39.57;;
30080;SDS011;16902;50.816;12.828;2023-02-08T18:44:16;79.70;;;39.43;;
30080;SDS011;16902;50.816;12.828;2023-02-08T18:49:19;85.17;;;41.20;;
30080;SDS011;16902;50.816;12.828;2023-02-08T18:54:21;77.63;;;40.40;;
30080;SDS011;16902;50.816;12.828;2023-02-08T18:59:23;73.90;;;34.90;;
30080;SDS011;16902;50.816;12.828;2023-02-08T19:04:24;72.53;;;32.73;;
30080;SDS011;16902;50.816;12.828;2023-02-08T19:09:26;71.93;;;33.73;;
30080;SDS011;16902;50.816;12.828;2023-02-08T19:14:28;68.43;;;34.67;;
30080;SDS011;16902;50.816;12.828;2023-02-08T19:19:30;71.13;;;36.27;;
30080;SDS011;16902;50.816;12.828;2023-02-08T19:24:32;66.80;;;32.57;;
30080;SDS011;16902;50.816;12.828;2023-02-08T19:29:34;67.60;;;32.17;;
30080;SDS011;16902;50.816;12.828;2023-02-08T19:34:37;68.57;;;32.80;;
30080;SDS011;16902;50.816;12.828;2023-02-08T19:39:38;66.63;;;33.17;;
30080;SDS011;16902;50.816;12.828;2023-02-08T19:44:40;67.37;;;32.17;;
30080;SDS011;16902;50.816;12.828;2023-02-08T19:49:42;60.57;;;31.80;;
30080;SDS011;16902;50.816;12.828;2023-02-08T19:54:44;60.70;;;31.93;;
30080;SDS011;16902;50.816;12.828;2023-02-08T19:59:46;66.17;;;33.00;;
30080;SDS011;16902;50.816;12.828;2023-02-08T20:04:48;68.83;;;32.57;;
30080;SDS011;16902;50.816;12.828;2023-02-08T20:09:50;60.20;;;32.17;;
30080;SDS011;16902;50.816;12.828;2023-02-08T20:14:52;69.70;;;38.58;;
30080;SDS011;16902;50.816;12.828;2023-02-08T20:19:54;74.87;;;34.83;;
30080;SDS011;16902;50.816;12.828;2023-02-08T20:24:56;65.07;;;32.03;;
30080;SDS011;16902;50.816;12.828;2023-02-08T20:29:58;65.47;;;32.23;;
30080;SDS011;16902;50.816;12.828;2023-02-08T20:34:59;67.87;;;31.10;;
30080;SDS011;16902;50.816;12.828;2023-02-08T20:40:02;60.33;;;28.10;;
30080;SDS011;16902;50.816;12.828;2023-02-08T20:45:05;47.10;;;26.03;;
30080;SDS011;16902;50.816;12.828;2023-02-08T20:50:07;56.37;;;25.67;;
30080;SDS011;16902;50.816;12.828;2023-02-08T20:55:19;47.73;;;24.20;;
30080;SDS011;16902;50.816;12.828;2023-02-08T21:00:21;40.40;;;20.47;;
30080;SDS011;16902;50.816;12.828;2023-02-08T21:05:33;29.20;;;15.33;;
30080;SDS011;16902;50.816;12.828;2023-02-08T21:10:35;30.27;;;14.63;;
30080;SDS011;16902;50.816;12.828;2023-02-08T21:15:41;29.57;;;14.70;;
30080;SDS011;16902;50.816;12.828;2023-02-08T21:20:43;25.63;;;14.20;;
30080;SDS011;16902;50.816;12.828;2023-02-08T21:25:46;30.75;;;18.60;;
30080;SDS011;16902;50.816;12.828;2023-02-08T21:30:59;26.63;;;15.63;;
30080;SDS011;16902;50.816;12.828;2023-02-08T21:36:04;25.17;;;14.30;;
30080;SDS011;16902;50.816;12.828;2023-02-08T21:41:15;21.33;;;13.40;;
30080;SDS011;16902;50.816;12.828;2023-02-08T21:46:22;22.63;;;14.17;;
30080;SDS011;16902;50.816;12.828;2023-02-08T21:51:29;21.27;;;14.10;;
30080;SDS011;16902;50.816;12.828;2023-02-08T21:56:49;25.83;;;15.30;;
30080;SDS011;16902;50.816;12.828;2023-02-08T22:01:51;20.30;;;13.73;;
30080;SDS011;16902;50.816;12.828;2023-02-08T22:06:53;23.00;;;13.63;;
30080;SDS011;16902;50.816;12.828;2023-02-08T22:11:55;27.93;;;15.03;;
30080;SDS011;16902;50.816;12.828;2023-02-08T22:16:57;24.27;;;15.10;;
30080;SDS011;16902;50.816;12.828;2023-02-08T22:21:59;23.07;;;13.00;;
30080;SDS011;16902;50.816;12.828;2023-02-08T22:27:02;22.20;;;13.13;;
30080;SDS011;16902;50.816;12.828;2023-02-08T22:32:04;22.13;;;13.90;;
30080;SDS011;16902;50.816;12.828;2023-02-08T22:37:07;24.00;;;13.83;;
30080;SDS011;16902;50.816;12.828;2023-02-08T22:42:09;22.57;;;13.60;;
30080;SDS011;16902;50.816;12.828;2023-02-08T22:47:14;22.13;;;13.23;;
30080;SDS011;16902;50.816;12.828;2023-02-08T22:52:16;19.27;;;12.37;;
30080;SDS011;16902;50.816;12.828;2023-02-08T22:57:18;20.53;;;12.77;;
30080;SDS011;16902;50.816;12.828;2023-02-08T23:02:20;26.77;;;13.83;;
30080;SDS011;16902;50.816;12.828;2023-02-08T23:07:23;25.73;;;15.17;;
30080;SDS011;16902;50.816;12.828;2023-02-08T23:12:25;18.37;;;12.47;;
30080;SDS011;16902;50.816;12.828;2023-02-08T23:17:27;20.77;;;12.23;;
30080;SDS011;16902;50.816;12.828;2023-02-08T23:22:29;21.27;;;11.80;;
30080;SDS011;16902;50.816;12.828;2023-02-08T23:27:31;20.07;;;12.40;;
30080;SDS011;16902;50.816;12.828;2023-02-08T23:32:33;23.13;;;14.13;;
30080;SDS011;16902;50.816;12.828;2023-02-08T23:37:34;21.67;;;13.97;;
30080;SDS011;16902;50.816;12.828;2023-02-08T23:42:37;24.63;;;14.53;;
30080;SDS011;16902;50.816;12.828;2023-02-08T23:47:39;21.40;;;14.00;;
30080;SDS011;16902;50.816;12.828;2023-02-08T23:52:40;24.73;;;14.10;;
30080;SDS011;16902;50.816;12.828;2023-02-08T23:57:42;20.93;;;13.67;;
